Yorkton Municipal Airport
CYQV : now visible

Airfield :











YOU CAN JOIN US ON...

 
LOGIN :

Register | Disclaimer

   EN    FR    IT 

 









Legend :    VFR   Marginal VFR   IFR   Intensive IFR   Very Intensive IFR
Visi :
Ceiling :
>= 8 km
>= 3000ft
5 to 8 km
1000 to 3000 ft
1500m to 5 km
500 to 1000 ft
800 to 1500m
200 to 500 ft
< 800m
< 200 ft
Symbols :   Thunderstorms  Fog  Heavy snow  Heavy precipitations  Wind > 20 kt






- Airport Elevation : 1635 ft
- IATA code : YQV


CYQV - Yorkton Municipal

CURRENT METAR :
  • 220800Z AUTO 22013G20KT 9SM CLR M04/M06 A2983 RMK SLP130

EXPIRED METARs :
  • 220700Z AUTO 22012G21KT 9SM CLR M04/M06 A2985 RMK SLP139
  • 220600Z AUTO 22011G18KT 9SM SCT140 M04/M05 A2987 RMK SLP146

Expired Forecast.



MET'MAP, your aeronautical weather chart ! - Copyright ORBIFLY December 2007 - Disclaimer

ORBIFLY MET'MAP TEAM :

Programming & Development : Alexandra Zaïnal
Concept & Development : Baudouin d'Aumeries
Co-Development & Prog : Marc-Olivier Méhu
Technical & hardware support : Manuel Goepfert

Contact : metmap@orbifly.com




SOURCES & CREDITS :

   NOAA       Earth
Advisory